createdAt,value
2019-04-30T00:01:20.014Z,90.30
2019-04-30T00:03:55.810Z,90.40
2019-04-30T00:06:28.879Z,90.50
2019-04-30T00:08:55.428Z,90.50
2019-04-30T00:11:25.360Z,90.50
2019-04-30T00:13:58.691Z,90.60
2019-04-30T00:16:26.221Z,90.50
2019-04-30T00:19:00.467Z,90.60
2019-04-30T00:21:27.316Z,90.60
2019-04-30T00:24:00.724Z,90.50
2019-04-30T00:26:27.952Z,90.50
2019-04-30T00:28:57.533Z,90.40
2019-04-30T00:31:27.563Z,90.50
2019-04-30T00:34:01.258Z,89.50
2019-04-30T00:36:34.002Z,89.60
2019-04-30T00:39:01.057Z,89.80
2019-04-30T00:41:32.240Z,89.80
2019-04-30T00:44:02.141Z,90.00
2019-04-30T00:46:31.832Z,89.70
2019-04-30T00:49:09.264Z,89.30
2019-04-30T00:51:32.645Z,89.30
2019-04-30T00:54:02.205Z,89.10
2019-04-30T00:56:32.001Z,89.10
2019-04-30T00:59:02.437Z,88.70
2019-04-30T01:01:39.270Z,88.80
2019-04-30T01:04:15.006Z,88.80
2019-04-30T01:06:46.185Z,88.90
2019-04-30T01:09:16.062Z,89.40
2019-04-30T01:11:48.076Z,88.80
2019-04-30T01:14:18.726Z,89.10
2019-04-30T01:16:49.358Z,89.30
2019-04-30T01:19:29.146Z,89.30
2019-04-30T01:21:50.910Z,89.30
2019-04-30T01:24:23.431Z,89.80
2019-04-30T01:26:52.208Z,89.20
2019-04-30T01:29:22.017Z,88.90
2019-04-30T01:31:51.636Z,89.30
2019-04-30T01:34:22.278Z,89.80
2019-04-30T01:36:52.341Z,90.10
2019-04-30T01:39:23.655Z,90.00
2019-04-30T01:41:53.439Z,90.20
2019-04-30T01:44:23.077Z,90.30
2019-04-30T01:46:52.706Z,90.40
2019-04-30T01:49:25.710Z,90.40
2019-04-30T01:51:57.428Z,90.80
2019-04-30T01:54:25.810Z,90.70
2019-04-30T01:57:02.613Z,90.90
2019-04-30T01:59:33.906Z,91.00
2019-04-30T02:02:03.596Z,91.00
2019-04-30T02:04:33.364Z,91.00
2019-04-30T02:07:02.882Z,90.80
2019-04-30T02:09:32.572Z,90.90
2019-04-30T02:12:02.016Z,91.00
2019-04-30T02:14:31.858Z,91.10
2019-04-30T02:17:01.461Z,91.20
2019-04-30T02:19:31.174Z,91.30
2019-04-30T02:22:01.195Z,91.20
2019-04-30T02:24:31.037Z,91.00
2019-04-30T02:27:00.716Z,91.00
2019-04-30T02:29:30.355Z,91.30
2019-04-30T02:32:00.569Z,91.40
2019-04-30T02:34:41.151Z,91.60
2019-04-30T02:37:22.407Z,91.50
2019-04-30T02:39:51.899Z,91.30
2019-04-30T02:42:21.805Z,91.40
2019-04-30T02:44:52.443Z,91.10
2019-04-30T02:47:24.715Z,91.20
2019-04-30T02:50:11.579Z,91.50
2019-04-30T02:52:30.166Z,91.10
2019-04-30T02:55:02.501Z,91.30
2019-04-30T02:57:32.159Z,91.40
2019-04-30T03:00:06.034Z,91.20
2019-04-30T03:02:35.734Z,91.20
2019-04-30T03:05:06.715Z,91.30
2019-04-30T03:07:36.274Z,91.20
2019-04-30T03:10:10.132Z,91.30
2019-04-30T03:12:40.554Z,91.30
2019-04-30T03:15:10.712Z,91.30
2019-04-30T03:18:00.599Z,91.10
2019-04-30T03:20:36.046Z,91.00
2019-04-30T03:23:02.551Z,91.10
2019-04-30T03:25:32.265Z,91.10
2019-04-30T03:28:01.820Z,91.00
2019-04-30T03:30:32.231Z,91.00
2019-04-30T03:33:03.132Z,91.10
2019-04-30T03:35:32.944Z,91.10
2019-04-30T03:38:02.681Z,90.90
2019-04-30T03:40:32.389Z,90.90
2019-04-30T03:43:03.165Z,91.00
2019-04-30T03:45:33.144Z,91.20
2019-04-30T03:48:02.758Z,91.20
2019-04-30T03:50:48.664Z,91.30
2019-04-30T03:53:03.804Z,91.10
2019-04-30T03:55:33.488Z,91.40
2019-04-30T03:58:03.108Z,91.60
2019-04-30T04:00:34.473Z,91.90
2019-04-30T04:03:04.054Z,91.70
2019-04-30T04:05:39.949Z,91.70
2019-04-30T04:08:19.325Z,91.50
2019-04-30T04:10:50.300Z,91.80
2019-04-30T04:13:20.733Z,92.20
2019-04-30T04:15:50.358Z,92.10
2019-04-30T04:18:20.356Z,92.30
2019-04-30T04:20:55.160Z,92.20
2019-04-30T04:23:21.316Z,92.00
2019-04-30T04:25:50.959Z,92.20
2019-04-30T04:28:20.605Z,91.70
2019-04-30T04:30:50.824Z,91.70
2019-04-30T04:33:20.854Z,91.70
2019-04-30T04:35:50.489Z,91.60
2019-04-30T04:38:20.537Z,91.50
2019-04-30T04:40:50.479Z,91.60
2019-04-30T04:43:21.124Z,91.00
2019-04-30T04:45:50.867Z,90.70
2019-04-30T04:48:23.205Z,90.70
2019-04-30T04:50:51.881Z,90.50
2019-04-30T04:53:21.533Z,90.50
2019-04-30T04:55:52.102Z,90.50
2019-04-30T04:58:21.924Z,90.40
2019-04-30T05:00:51.652Z,90.50
2019-04-30T05:03:25.676Z,90.60
2019-04-30T05:05:55.278Z,90.60
2019-04-30T05:08:25.036Z,90.40
2019-04-30T05:10:54.728Z,90.20
2019-04-30T05:13:24.303Z,90.10
2019-04-30T05:15:53.848Z,90.00
2019-04-30T05:18:23.345Z,90.20
2019-04-30T05:20:53.127Z,89.20
2019-04-30T05:23:22.856Z,87.90
2019-04-30T05:25:52.502Z,87.50
2019-04-30T05:28:22.157Z,86.60
2019-04-30T05:30:51.867Z,86.20
2019-04-30T05:33:21.571Z,85.30
2019-04-30T05:35:51.187Z,84.10
2019-04-30T05:38:20.785Z,83.10
2019-04-30T05:40:50.418Z,81.20
2019-04-30T05:43:20.007Z,80.20
2019-04-30T05:45:49.572Z,77.30
2019-04-30T05:48:19.255Z,74.80
2019-04-30T05:50:51.478Z,74.10
2019-04-30T05:53:20.092Z,71.70
2019-04-30T05:55:49.795Z,69.00
2019-04-30T05:58:19.925Z,71.30
2019-04-30T06:00:50.042Z,72.20
2019-04-30T06:03:29.726Z,71.50
2019-04-30T06:05:51.103Z,71.10
2019-04-30T06:08:22.542Z,71.90
2019-04-30T06:10:53.813Z,72.90
2019-04-30T06:13:41.547Z,69.30
2019-04-30T06:16:12.862Z,66.40
2019-04-30T06:18:42.573Z,68.70
2019-04-30T06:21:12.674Z,67.80
2019-04-30T06:23:42.332Z,69.50
2019-04-30T06:26:13.136Z,70.30
2019-04-30T06:28:43.290Z,70.00
2019-04-30T06:31:12.868Z,64.20
2019-04-30T06:33:42.711Z,47.90
2019-04-30T06:36:12.483Z,41.50
2019-04-30T06:38:42.099Z,35.50
2019-04-30T06:41:11.724Z,34.20
2019-04-30T06:43:41.457Z,32.50
2019-04-30T06:46:11.434Z,31.80
2019-04-30T06:48:41.917Z,31.60
2019-04-30T06:51:11.578Z,31.90
2019-04-30T06:53:41.381Z,30.90
2019-04-30T06:56:10.956Z,29.80
2019-04-30T06:58:41.381Z,28.60
2019-04-30T07:01:11.077Z,28.20
2019-04-30T07:03:41.763Z,29.80
2019-04-30T07:06:11.581Z,29.80
2019-04-30T07:08:54.687Z,29.40
2019-04-30T07:11:29.214Z,27.40
2019-04-30T07:14:00.373Z,26.30
2019-04-30T07:16:30.061Z,25.50
2019-04-30T07:18:59.686Z,24.00
2019-04-30T07:21:31.690Z,23.00
2019-04-30T07:24:00.572Z,22.60
2019-04-30T07:26:30.113Z,22.00
2019-04-30T07:29:02.565Z,22.00
2019-04-30T07:31:31.971Z,21.30
2019-04-30T07:34:01.637Z,22.20
2019-04-30T07:36:45.956Z,21.10
2019-04-30T07:39:02.894Z,20.90
2019-04-30T07:41:32.857Z,20.80
2019-04-30T07:44:02.424Z,20.00
2019-04-30T07:46:35.253Z,19.20
2019-04-30T07:49:03.175Z,19.70
2019-04-30T07:51:37.857Z,17.60
2019-04-30T07:54:05.053Z,18.20
2019-04-30T07:56:38.002Z,19.10
2019-04-30T07:59:05.936Z,19.50
2019-04-30T08:01:35.525Z,19.10
2019-04-30T08:04:13.066Z,17.80
2019-04-30T08:06:43.822Z,16.60
2019-04-30T08:09:13.549Z,18.40
2019-04-30T08:11:43.824Z,17.80
2019-04-30T08:14:13.457Z,19.00
2019-04-30T08:16:43.084Z,19.70
2019-04-30T08:19:13.959Z,21.00
2019-04-30T08:21:43.541Z,20.50
2019-04-30T08:24:14.242Z,20.30
2019-04-30T08:26:43.978Z,20.20
2019-04-30T08:29:13.689Z,22.00
2019-04-30T08:31:43.318Z,27.40
2019-04-30T08:34:13.012Z,29.30
2019-04-30T08:36:42.719Z,30.70
2019-04-30T08:39:12.564Z,33.60
2019-04-30T08:41:42.176Z,34.40
2019-04-30T08:44:11.772Z,33.50
2019-04-30T08:46:41.357Z,33.10
2019-04-30T08:49:11.294Z,34.40
2019-04-30T08:51:41.195Z,35.50
2019-04-30T08:54:11.141Z,36.80
2019-04-30T08:56:40.844Z,37.90
2019-04-30T08:59:11.262Z,36.80
2019-04-30T09:01:41.055Z,38.00
2019-04-30T09:04:10.758Z,37.30
2019-04-30T09:06:40.386Z,34.20
2019-04-30T09:09:11.824Z,37.90
2019-04-30T09:11:51.823Z,36.30
2019-04-30T09:14:12.912Z,34.50
2019-04-30T09:16:42.694Z,32.80
2019-04-30T09:19:13.896Z,33.60
2019-04-30T09:21:43.447Z,33.50
2019-04-30T09:24:13.087Z,31.20
2019-04-30T09:26:42.566Z,34.10
2019-04-30T09:29:12.165Z,36.30
2019-04-30T09:31:42.771Z,38.60
2019-04-30T09:34:17.004Z,39.20
2019-04-30T09:36:43.551Z,39.10
2019-04-30T09:39:13.369Z,36.60
2019-04-30T09:41:43.104Z,38.60
2019-04-30T09:44:12.786Z,39.50
2019-04-30T09:46:42.408Z,39.30
2019-04-30T09:49:12.034Z,39.00
2019-04-30T09:51:41.790Z,39.00
2019-04-30T09:54:12.652Z,38.60
2019-04-30T09:56:42.998Z,39.20
2019-04-30T09:59:12.643Z,39.90
2019-04-30T10:01:42.428Z,39.30
2019-04-30T10:04:12.617Z,41.70
2019-04-30T10:06:42.665Z,39.90
2019-04-30T10:09:14.220Z,40.80
2019-04-30T10:11:54.458Z,40.80
2019-04-30T10:14:24.155Z,39.00
2019-04-30T10:17:01.064Z,36.70
2019-04-30T10:19:30.909Z,36.80
2019-04-30T10:22:00.664Z,35.00
2019-04-30T10:24:30.261Z,35.20
2019-04-30T10:27:01.136Z,35.00
2019-04-30T10:29:31.069Z,37.30
2019-04-30T10:32:00.759Z,36.80
2019-04-30T10:34:30.368Z,36.90
2019-04-30T10:37:02.865Z,36.00
2019-04-30T10:39:31.615Z,34.20
2019-04-30T10:42:01.444Z,34.00
2019-04-30T10:44:31.235Z,32.50
2019-04-30T10:47:00.939Z,32.80
2019-04-30T10:49:30.552Z,33.20
2019-04-30T10:52:01.156Z,32.50
2019-04-30T10:54:30.924Z,32.60
2019-04-30T10:57:00.596Z,31.40
2019-04-30T10:59:30.148Z,32.30
2019-04-30T11:01:59.917Z,32.00
2019-04-30T11:04:29.405Z,34.70
2019-04-30T11:07:00.531Z,33.30
2019-04-30T11:09:31.064Z,32.90
2019-04-30T11:12:02.985Z,34.60
2019-04-30T11:14:32.388Z,33.40
2019-04-30T11:17:02.148Z,33.40
2019-04-30T11:19:32.145Z,33.90
2019-04-30T11:22:02.241Z,34.60
2019-04-30T11:24:37.924Z,34.70
2019-04-30T11:27:03.811Z,32.70
2019-04-30T11:29:33.926Z,33.20
2019-04-30T11:32:11.525Z,33.90
2019-04-30T11:34:41.238Z,33.20
2019-04-30T11:37:11.424Z,33.70
2019-04-30T11:39:41.165Z,34.20
2019-04-30T11:42:10.954Z,35.10
2019-04-30T11:44:40.858Z,33.80
2019-04-30T11:47:19.689Z,35.60
2019-04-30T11:49:49.290Z,35.00
2019-04-30T11:52:19.117Z,35.60
2019-04-30T11:54:54.176Z,34.70
2019-04-30T11:57:21.207Z,35.50
2019-04-30T11:59:51.005Z,33.60
2019-04-30T12:02:26.505Z,33.20
2019-04-30T12:04:56.188Z,32.00
2019-04-30T12:07:31.179Z,32.30
2019-04-30T12:10:09.481Z,33.40
2019-04-30T12:12:39.274Z,32.00
2019-04-30T12:15:09.433Z,31.50
2019-04-30T12:17:40.068Z,30.00
2019-04-30T12:20:10.488Z,31.70
2019-04-30T12:22:40.181Z,32.00
2019-04-30T12:25:10.593Z,31.60
2019-04-30T12:27:41.837Z,31.40
2019-04-30T12:30:12.274Z,31.80
2019-04-30T12:32:42.048Z,31.20
2019-04-30T12:35:12.318Z,30.90
2019-04-30T12:37:41.953Z,30.70
2019-04-30T12:40:25.801Z,29.00
2019-04-30T12:42:43.243Z,28.00
2019-04-30T12:45:13.226Z,28.00
2019-04-30T12:47:44.475Z,26.90
2019-04-30T12:50:22.586Z,28.10
2019-04-30T12:53:05.670Z,28.10
2019-04-30T12:55:39.106Z,29.80
2019-04-30T12:58:09.782Z,29.40
2019-04-30T13:00:39.548Z,30.00
2019-04-30T13:03:09.040Z,31.00
2019-04-30T13:05:39.612Z,32.10
2019-04-30T13:08:10.156Z,32.60
2019-04-30T13:10:40.616Z,31.50
2019-04-30T13:13:11.004Z,32.20
2019-04-30T13:15:41.269Z,32.10
2019-04-30T13:18:10.907Z,31.10
2019-04-30T13:20:40.612Z,31.00
2019-04-30T13:23:10.205Z,31.00
2019-04-30T13:25:50.789Z,30.30
2019-04-30T13:28:12.815Z,29.80
2019-04-30T13:30:43.041Z,30.20
2019-04-30T13:33:14.386Z,30.70
2019-04-30T13:35:44.022Z,29.60
2019-04-30T13:38:21.312Z,30.60
2019-04-30T13:41:01.539Z,32.60
2019-04-30T13:43:48.769Z,30.90
2019-04-30T13:46:18.596Z,30.80
2019-04-30T13:48:48.287Z,30.20
2019-04-30T13:51:18.063Z,30.30
2019-04-30T13:53:47.812Z,29.60
2019-04-30T13:56:19.985Z,31.40
2019-04-30T13:58:49.070Z,31.30
2019-04-30T14:01:21.425Z,31.30
2019-04-30T14:04:08.894Z,31.80
2019-04-30T14:06:40.246Z,32.00
2019-04-30T14:09:11.452Z,32.80
2019-04-30T14:11:41.029Z,33.10
2019-04-30T14:14:10.882Z,32.70
2019-04-30T14:16:40.449Z,33.50
2019-04-30T14:19:10.131Z,31.20
2019-04-30T14:21:39.666Z,31.50
2019-04-30T14:24:09.543Z,32.30
2019-04-30T14:26:40.360Z,33.70
2019-04-30T14:29:11.094Z,36.30
2019-04-30T14:31:40.663Z,37.00
2019-04-30T14:34:10.415Z,38.10
2019-04-30T14:36:40.189Z,37.70
2019-04-30T14:39:14.636Z,37.30
2019-04-30T14:41:41.978Z,37.80
2019-04-30T14:44:26.706Z,38.10
2019-04-30T14:47:11.672Z,38.30
2019-04-30T14:49:41.503Z,38.20
2019-04-30T14:52:11.737Z,37.90
2019-04-30T14:54:58.857Z,39.10
2019-04-30T14:57:51.090Z,38.30
2019-04-30T15:00:32.592Z,39.40
2019-04-30T15:03:09.745Z,39.50
2019-04-30T15:05:46.960Z,38.80
2019-04-30T15:08:10.679Z,39.10
2019-04-30T15:10:40.587Z,38.90
2019-04-30T15:13:10.375Z,38.80
2019-04-30T15:15:39.941Z,38.60
2019-04-30T15:18:09.690Z,40.20
2019-04-30T15:20:39.925Z,38.10
2019-04-30T15:23:29.697Z,37.90
2019-04-30T15:25:59.328Z,37.50
2019-04-30T15:28:32.452Z,38.50
2019-04-30T15:31:00.158Z,38.20
2019-04-30T15:33:34.424Z,38.30
2019-04-30T15:36:04.914Z,38.00
2019-04-30T15:38:52.332Z,37.60
2019-04-30T15:41:22.242Z,37.00
2019-04-30T15:43:51.896Z,38.20
2019-04-30T15:46:21.533Z,37.10
2019-04-30T15:48:51.202Z,36.80
2019-04-30T15:51:20.817Z,37.90
2019-04-30T15:53:50.491Z,37.60
2019-04-30T15:56:20.100Z,36.80
2019-04-30T15:58:55.445Z,36.40
2019-04-30T16:01:25.164Z,36.50
2019-04-30T16:03:57.166Z,37.00
2019-04-30T16:06:28.476Z,38.00
2019-04-30T16:09:00.021Z,37.50
2019-04-30T16:11:43.164Z,38.50
2019-04-30T16:14:26.406Z,39.10
2019-04-30T16:17:03.381Z,39.20
2019-04-30T16:19:33.163Z,39.60
2019-04-30T16:22:02.738Z,39.70
2019-04-30T16:24:32.509Z,40.30
2019-04-30T16:27:02.054Z,40.00
2019-04-30T16:29:31.753Z,39.90
2019-04-30T16:32:01.506Z,40.00
2019-04-30T16:34:31.220Z,40.60
2019-04-30T16:37:00.958Z,40.80
2019-04-30T16:39:31.556Z,41.20
2019-04-30T16:42:01.277Z,41.40
2019-04-30T16:44:31.904Z,41.40
2019-04-30T16:47:13.118Z,42.60
2019-04-30T16:49:32.819Z,43.10
2019-04-30T16:52:02.600Z,43.90
2019-04-30T16:54:33.715Z,44.00
2019-04-30T16:57:06.804Z,44.50
2019-04-30T16:59:38.926Z,44.30
2019-04-30T17:02:09.427Z,44.40
2019-04-30T17:04:43.510Z,43.90
2019-04-30T17:07:18.755Z,44.80
2019-04-30T17:09:50.983Z,45.20
2019-04-30T17:12:29.379Z,45.00
2019-04-30T17:15:19.136Z,44.70
2019-04-30T17:17:49.646Z,44.70
2019-04-30T17:20:20.916Z,44.50
2019-04-30T17:22:51.834Z,44.90
2019-04-30T17:25:21.544Z,45.40
2019-04-30T17:27:51.253Z,45.70
2019-04-30T17:30:21.064Z,45.90
2019-04-30T17:32:50.775Z,45.50
2019-04-30T17:35:20.428Z,45.50
2019-04-30T17:37:50.096Z,45.90
2019-04-30T17:40:21.816Z,46.00
2019-04-30T17:42:51.518Z,46.30
2019-04-30T17:45:23.443Z,46.70
2019-04-30T17:47:53.570Z,46.50
2019-04-30T17:50:24.526Z,46.90
2019-04-30T17:52:54.335Z,47.40
2019-04-30T17:55:24.009Z,47.50
2019-04-30T17:57:55.027Z,48.30
2019-04-30T18:00:29.178Z,48.20
2019-04-30T18:02:58.360Z,48.20
2019-04-30T18:05:29.253Z,49.20
2019-04-30T18:07:59.210Z,49.80
2019-04-30T18:10:29.626Z,50.00
2019-04-30T18:13:00.373Z,51.10
2019-04-30T18:15:31.160Z,50.70
2019-04-30T18:18:02.362Z,51.30
2019-04-30T18:20:33.604Z,51.40
2019-04-30T18:23:12.535Z,52.30
2019-04-30T18:25:46.737Z,51.70
2019-04-30T18:28:16.391Z,51.90
2019-04-30T18:30:46.019Z,53.00
2019-04-30T18:33:15.766Z,54.10
2019-04-30T18:35:45.469Z,54.90
2019-04-30T18:38:17.730Z,55.70
2019-04-30T18:40:49.535Z,56.40
2019-04-30T18:43:20.698Z,56.90
2019-04-30T18:45:53.621Z,57.40
2019-04-30T18:48:23.454Z,57.60
2019-04-30T18:50:55.036Z,57.70
2019-04-30T18:53:28.452Z,57.80
2019-04-30T18:55:59.524Z,58.00
2019-04-30T18:58:39.239Z,58.40
2019-04-30T19:01:00.849Z,58.40
2019-04-30T19:03:31.746Z,57.80
2019-04-30T19:06:04.408Z,58.10
2019-04-30T19:08:35.709Z,58.30
2019-04-30T19:11:22.201Z,57.90
2019-04-30T19:13:53.407Z,57.30
2019-04-30T19:16:42.130Z,57.50
2019-04-30T19:19:22.367Z,57.40
2019-04-30T19:21:54.866Z,57.00
2019-04-30T19:24:24.998Z,57.00
2019-04-30T19:26:54.751Z,57.60
2019-04-30T19:29:24.381Z,57.10
2019-04-30T19:31:54.405Z,57.30
2019-04-30T19:34:24.037Z,58.60
2019-04-30T19:36:53.750Z,58.00
2019-04-30T19:39:24.427Z,57.90
2019-04-30T19:41:54.141Z,58.20
2019-04-30T19:44:23.894Z,58.50
2019-04-30T19:46:54.172Z,58.70
2019-04-30T19:49:23.775Z,59.60
2019-04-30T19:52:05.597Z,59.80
2019-04-30T19:54:24.632Z,59.80
2019-04-30T19:56:54.262Z,59.80
2019-04-30T19:59:23.905Z,60.10
2019-04-30T20:01:54.207Z,60.70
2019-04-30T20:04:33.040Z,60.80
2019-04-30T20:06:59.047Z,60.60
2019-04-30T20:09:26.604Z,61.20
2019-04-30T20:11:56.998Z,61.60
2019-04-30T20:14:26.825Z,61.20
2019-04-30T20:16:56.459Z,62.20
2019-04-30T20:19:26.131Z,62.40
2019-04-30T20:21:55.910Z,62.00
2019-04-30T20:24:25.484Z,62.20
2019-04-30T20:27:06.419Z,62.70
2019-04-30T20:29:28.825Z,62.50
2019-04-30T20:31:59.103Z,63.50
2019-04-30T20:34:29.393Z,64.50
2019-04-30T20:37:00.322Z,65.30
2019-04-30T20:39:32.837Z,66.10
2019-04-30T20:42:02.673Z,66.00
2019-04-30T20:44:32.359Z,65.60
2019-04-30T20:47:01.966Z,66.50
2019-04-30T20:49:31.630Z,65.20
2019-04-30T20:52:01.315Z,65.30
2019-04-30T20:54:31.022Z,65.70
2019-04-30T20:57:00.555Z,65.60
2019-04-30T20:59:31.513Z,65.70
2019-04-30T21:02:01.277Z,65.10
2019-04-30T21:04:30.988Z,65.20
2019-04-30T21:07:00.634Z,64.90
2019-04-30T21:09:30.278Z,64.70
2019-04-30T21:11:59.882Z,64.60
2019-04-30T21:14:29.596Z,64.90
2019-04-30T21:16:59.202Z,64.90
2019-04-30T21:19:29.441Z,66.00
2019-04-30T21:21:59.581Z,66.10
2019-04-30T21:24:29.332Z,65.90
2019-04-30T21:26:59.067Z,65.30
2019-04-30T21:29:29.574Z,64.80
2019-04-30T21:32:01.039Z,64.30
2019-04-30T21:34:34.886Z,64.30
2019-04-30T21:37:04.639Z,64.50
2019-04-30T21:39:34.501Z,64.60
2019-04-30T21:42:04.142Z,64.60
2019-04-30T21:44:33.801Z,64.60
2019-04-30T21:47:03.505Z,64.20
2019-04-30T21:49:33.128Z,64.30
2019-04-30T21:52:02.843Z,64.80
2019-04-30T21:54:32.609Z,64.60
2019-04-30T21:57:02.345Z,64.40
2019-04-30T21:59:31.917Z,64.50
2019-04-30T22:02:01.698Z,64.60
2019-04-30T22:04:31.379Z,64.90
2019-04-30T22:07:01.086Z,64.90
2019-04-30T22:09:30.800Z,64.90
2019-04-30T22:12:00.821Z,65.20
2019-04-30T22:14:30.423Z,65.10
2019-04-30T22:17:00.267Z,64.70
2019-04-30T22:19:30.057Z,65.30
2019-04-30T22:21:59.687Z,64.80
2019-04-30T22:24:30.530Z,65.40
2019-04-30T22:27:04.304Z,64.80
2019-04-30T22:29:39.218Z,64.40
2019-04-30T22:32:05.287Z,64.30
2019-04-30T22:34:34.893Z,64.60
2019-04-30T22:37:04.576Z,65.60
2019-04-30T22:39:39.560Z,65.20
2019-04-30T22:42:30.650Z,65.30
2019-04-30T22:45:01.387Z,65.40
2019-04-30T22:47:32.295Z,65.50
2019-04-30T22:50:02.108Z,65.30
2019-04-30T22:52:31.729Z,65.00
2019-04-30T22:55:01.352Z,65.20
2019-04-30T22:57:31.030Z,65.30
2019-04-30T23:00:00.779Z,65.40
2019-04-30T23:02:36.294Z,66.00
2019-04-30T23:05:08.077Z,66.20
2019-04-30T23:07:37.776Z,65.90
2019-04-30T23:10:08.007Z,66.10
2019-04-30T23:12:38.918Z,66.00
2019-04-30T23:15:08.832Z,66.10
2019-04-30T23:17:38.443Z,66.00
2019-04-30T23:20:08.240Z,66.30
2019-04-30T23:22:37.996Z,66.10
2019-04-30T23:25:07.565Z,66.30
2019-04-30T23:27:37.197Z,66.50
2019-04-30T23:30:07.652Z,67.10
2019-04-30T23:32:37.190Z,66.40
2019-04-30T23:35:06.915Z,66.80
2019-04-30T23:37:36.564Z,66.50
2019-04-30T23:40:24.048Z,66.20
2019-04-30T23:42:54.477Z,66.20
2019-04-30T23:45:24.487Z,66.00
2019-04-30T23:47:54.218Z,65.70
2019-04-30T23:50:23.822Z,65.80
2019-04-30T23:52:53.487Z,66.20
2019-04-30T23:55:23.015Z,66.10
2019-04-30T23:57:52.542Z,65.80
